createdAt,value
2019-05-22T00:00:27.553Z,93.60
2019-05-22T00:02:59.082Z,93.60
2019-05-22T00:05:35.949Z,93.60
2019-05-22T00:08:08.602Z,93.80
2019-05-22T00:10:40.995Z,93.60
2019-05-22T00:13:13.548Z,93.60
2019-05-22T00:15:46.264Z,93.80
2019-05-22T00:18:15.995Z,93.90
2019-05-22T00:20:46.886Z,93.90
2019-05-22T00:23:18.783Z,94.20
2019-05-22T00:25:48.503Z,94.00
2019-05-22T00:28:17.906Z,93.90
2019-05-22T00:30:49.256Z,93.90
2019-05-22T00:33:19.477Z,93.80
2019-05-22T00:35:51.222Z,94.00
2019-05-22T00:38:22.314Z,94.00
2019-05-22T00:40:57.412Z,94.10
2019-05-22T00:43:34.306Z,94.10
2019-05-22T00:46:05.326Z,93.80
2019-05-22T00:48:36.281Z,93.70
2019-05-22T00:51:10.590Z,93.80
2019-05-22T00:53:58.064Z,93.70
2019-05-22T00:56:45.724Z,93.70
2019-05-22T00:59:31.568Z,93.80
2019-05-22T01:02:11.767Z,93.80
2019-05-22T01:04:41.879Z,93.80
2019-05-22T01:07:18.605Z,93.70
2019-05-22T01:09:51.650Z,93.60
2019-05-22T01:12:29.024Z,93.80
2019-05-22T01:15:04.992Z,93.80
2019-05-22T01:17:36.533Z,93.90
2019-05-22T01:20:10.829Z,93.70
2019-05-22T01:22:42.572Z,93.70
2019-05-22T01:25:16.324Z,93.80
2019-05-22T01:27:47.593Z,93.90
2019-05-22T01:30:23.342Z,93.80
2019-05-22T01:32:53.930Z,93.50
2019-05-22T01:35:29.083Z,93.30
2019-05-22T01:37:59.748Z,93.60
2019-05-22T01:40:32.666Z,93.80
2019-05-22T01:43:03.820Z,94.00
2019-05-22T01:45:33.605Z,93.90
2019-05-22T01:48:06.449Z,93.90
2019-05-22T01:50:41.671Z,93.90
2019-05-22T01:53:12.803Z,93.40
2019-05-22T01:55:44.571Z,92.90
2019-05-22T01:58:15.774Z,93.60
2019-05-22T02:00:45.886Z,93.40
2019-05-22T02:03:17.202Z,93.30
2019-05-22T02:05:47.980Z,93.30
2019-05-22T02:08:17.837Z,93.00
2019-05-22T02:10:49.771Z,92.40
2019-05-22T02:13:25.747Z,92.20
2019-05-22T02:15:55.677Z,92.00
2019-05-22T02:18:27.561Z,92.20
2019-05-22T02:20:57.872Z,92.10
2019-05-22T02:23:27.343Z,92.10
2019-05-22T02:25:57.788Z,92.10
2019-05-22T02:28:27.303Z,92.10
2019-05-22T02:30:56.807Z,92.00
2019-05-22T02:33:27.190Z,91.80
2019-05-22T02:35:57.042Z,92.00
2019-05-22T02:38:26.874Z,92.00
2019-05-22T02:40:59.748Z,91.90
2019-05-22T02:43:30.976Z,92.40
2019-05-22T02:46:01.172Z,91.90
2019-05-22T02:48:31.514Z,91.80
2019-05-22T02:51:02.000Z,91.70
2019-05-22T02:53:31.506Z,91.70
2019-05-22T02:56:00.954Z,91.60
2019-05-22T02:58:31.475Z,91.40
2019-05-22T03:01:06.339Z,91.40
2019-05-22T03:03:37.579Z,91.40
2019-05-22T03:06:12.776Z,91.30
2019-05-22T03:09:05.159Z,91.30
2019-05-22T03:11:40.337Z,91.20
2019-05-22T03:14:11.300Z,91.10
2019-05-22T03:16:51.346Z,91.10
2019-05-22T03:19:47.806Z,91.00
2019-05-22T03:22:24.263Z,91.00
2019-05-22T03:24:55.308Z,90.90
2019-05-22T03:27:34.174Z,90.80
2019-05-22T03:30:06.801Z,90.90
2019-05-22T03:32:43.119Z,91.10
2019-05-22T03:35:10.709Z,91.10
2019-05-22T03:37:41.571Z,91.30
2019-05-22T03:40:12.727Z,91.30
2019-05-22T03:42:42.862Z,91.30
2019-05-22T03:45:13.631Z,91.30
2019-05-22T03:47:43.731Z,91.30
2019-05-22T03:50:13.834Z,91.20
2019-05-22T03:52:43.604Z,91.10
2019-05-22T03:55:13.124Z,91.10
2019-05-22T03:57:44.485Z,91.10
2019-05-22T04:00:17.625Z,91.10
2019-05-22T04:02:51.893Z,91.10
2019-05-22T04:05:22.285Z,91.10
2019-05-22T04:07:53.725Z,91.40
2019-05-22T04:10:26.171Z,90.90
2019-05-22T04:12:56.584Z,90.90
2019-05-22T04:15:26.417Z,90.90
2019-05-22T04:17:59.036Z,90.90
2019-05-22T04:20:30.570Z,91.00
2019-05-22T04:23:00.810Z,91.00
2019-05-22T04:25:30.412Z,91.00
2019-05-22T04:28:00.426Z,91.00
2019-05-22T04:30:29.816Z,91.40
2019-05-22T04:33:00.845Z,91.20
2019-05-22T04:35:30.422Z,91.20
2019-05-22T04:38:00.966Z,91.20
2019-05-22T04:40:39.385Z,91.40
2019-05-22T04:43:08.917Z,91.30
2019-05-22T04:45:38.282Z,91.40
2019-05-22T04:48:08.454Z,91.40
2019-05-22T04:50:37.962Z,91.40
2019-05-22T04:53:07.418Z,91.30
2019-05-22T04:55:37.032Z,91.20
2019-05-22T04:58:11.453Z,91.20
2019-05-22T05:00:41.225Z,91.10
2019-05-22T05:03:12.974Z,91.00
2019-05-22T05:05:44.193Z,91.00
2019-05-22T05:08:15.282Z,91.00
2019-05-22T05:10:48.131Z,91.00
2019-05-22T05:13:18.462Z,91.00
2019-05-22T05:15:47.937Z,91.00
2019-05-22T05:18:18.473Z,91.00
2019-05-22T05:20:48.243Z,91.10
2019-05-22T05:23:17.666Z,91.10
2019-05-22T05:25:47.073Z,91.20
2019-05-22T05:28:17.128Z,91.10
2019-05-22T05:30:46.589Z,91.10
2019-05-22T05:33:16.255Z,91.20
2019-05-22T05:35:46.068Z,91.10
2019-05-22T05:38:16.535Z,91.10
2019-05-22T05:40:46.486Z,91.20
2019-05-22T05:43:16.622Z,91.30
2019-05-22T05:45:48.760Z,91.20
2019-05-22T05:48:20.897Z,91.20
2019-05-22T05:51:08.703Z,91.20
2019-05-22T05:54:00.010Z,91.10
2019-05-22T05:56:30.298Z,90.90
2019-05-22T05:59:02.983Z,90.80
2019-05-22T06:01:40.224Z,90.90
2019-05-22T06:04:12.337Z,90.90
2019-05-22T06:06:44.892Z,90.80
2019-05-22T06:09:17.500Z,90.70
2019-05-22T06:11:52.327Z,90.60
2019-05-22T06:14:28.295Z,90.40
2019-05-22T06:17:26.638Z,90.30
2019-05-22T06:20:13.474Z,90.10
2019-05-22T06:22:45.467Z,89.80
2019-05-22T06:25:16.918Z,89.80
2019-05-22T06:27:49.684Z,89.70
2019-05-22T06:30:23.390Z,89.80
2019-05-22T06:33:12.358Z,89.50
2019-05-22T06:35:44.436Z,89.20
2019-05-22T06:38:32.062Z,89.00
2019-05-22T06:41:02.041Z,89.20
2019-05-22T06:43:37.643Z,89.00
2019-05-22T06:46:08.029Z,89.10
2019-05-22T06:48:37.883Z,88.90
2019-05-22T06:51:18.999Z,88.30
2019-05-22T06:53:38.959Z,88.60
2019-05-22T06:56:08.328Z,86.90
2019-05-22T06:58:38.000Z,86.50
2019-05-22T07:01:08.053Z,86.10
2019-05-22T07:03:37.816Z,86.00
2019-05-22T07:06:07.680Z,85.20
2019-05-22T07:08:37.483Z,83.80
2019-05-22T07:11:08.318Z,82.40
2019-05-22T07:13:38.116Z,81.60
2019-05-22T07:16:07.929Z,81.20
2019-05-22T07:18:37.728Z,80.70
2019-05-22T07:21:08.026Z,80.60
2019-05-22T07:23:37.544Z,80.50
2019-05-22T07:26:08.484Z,80.20
2019-05-22T07:28:38.761Z,79.80
2019-05-22T07:31:08.617Z,79.50
2019-05-22T07:33:38.585Z,78.60
2019-05-22T07:36:12.126Z,76.90
2019-05-22T07:38:39.630Z,75.40
2019-05-22T07:41:09.683Z,74.60
2019-05-22T07:43:41.752Z,75.10
2019-05-22T07:46:10.519Z,75.00
2019-05-22T07:48:40.916Z,75.30
2019-05-22T07:51:11.396Z,75.10
2019-05-22T07:53:41.782Z,75.20
2019-05-22T07:56:12.893Z,75.60
2019-05-22T07:58:44.168Z,76.00
2019-05-22T08:01:15.874Z,75.10
2019-05-22T08:03:47.449Z,74.70
2019-05-22T08:06:17.511Z,74.70
2019-05-22T08:08:47.424Z,73.90
2019-05-22T08:11:19.811Z,72.10
2019-05-22T08:13:50.565Z,68.70
2019-05-22T08:16:20.461Z,65.30
2019-05-22T08:18:50.393Z,62.70
2019-05-22T08:21:23.339Z,59.30
2019-05-22T08:23:53.936Z,56.40
2019-05-22T08:26:24.772Z,53.00
2019-05-22T08:28:55.308Z,48.70
2019-05-22T08:31:25.618Z,45.10
2019-05-22T08:33:56.307Z,45.00
2019-05-22T08:36:26.260Z,44.80
2019-05-22T08:38:55.699Z,44.20
2019-05-22T08:41:28.218Z,42.50
2019-05-22T08:44:15.178Z,42.40
2019-05-22T08:46:30.951Z,41.80
2019-05-22T08:49:01.453Z,42.30
2019-05-22T08:51:31.033Z,44.40
2019-05-22T08:54:00.708Z,46.20
2019-05-22T08:56:33.146Z,47.80
2019-05-22T08:59:18.448Z,48.80
2019-05-22T09:01:34.218Z,48.60
2019-05-22T09:04:05.329Z,48.30
2019-05-22T09:06:34.927Z,48.00
2019-05-22T09:09:06.511Z,48.20
2019-05-22T09:11:35.880Z,47.70
2019-05-22T09:14:05.406Z,44.40
2019-05-22T09:16:34.973Z,43.00
2019-05-22T09:19:04.577Z,42.30
2019-05-22T09:21:34.535Z,41.50
2019-05-22T09:24:04.758Z,34.50
2019-05-22T09:26:34.565Z,28.70
2019-05-22T09:29:05.022Z,25.40
2019-05-22T09:31:34.386Z,26.40
2019-05-22T09:34:03.826Z,25.20
2019-05-22T09:36:33.367Z,26.40
2019-05-22T09:39:03.681Z,28.90
2019-05-22T09:41:33.126Z,29.60
2019-05-22T09:44:03.065Z,29.20
2019-05-22T09:46:33.392Z,29.60
2019-05-22T09:49:03.294Z,29.80
2019-05-22T09:51:32.833Z,31.90
2019-05-22T09:54:03.492Z,34.50
2019-05-22T09:56:33.303Z,37.50
2019-05-22T09:59:02.976Z,40.50
2019-05-22T10:01:32.497Z,41.90
2019-05-22T10:04:02.329Z,42.80
2019-05-22T10:06:31.805Z,42.30
2019-05-22T10:09:01.491Z,40.40
2019-05-22T10:11:32.353Z,39.60
2019-05-22T10:14:02.643Z,39.30
2019-05-22T10:16:32.219Z,37.90
2019-05-22T10:19:01.830Z,35.90
2019-05-22T10:21:31.927Z,34.70
2019-05-22T10:24:01.733Z,34.70
2019-05-22T10:26:31.352Z,35.40
2019-05-22T10:29:01.160Z,35.70
2019-05-22T10:31:31.031Z,35.60
2019-05-22T10:34:00.647Z,35.10
2019-05-22T10:36:30.206Z,34.70
2019-05-22T10:38:59.593Z,35.10
2019-05-22T10:41:29.389Z,35.60
2019-05-22T10:43:59.662Z,35.80
2019-05-22T10:46:29.520Z,36.00
2019-05-22T10:48:59.500Z,36.00
2019-05-22T10:51:29.408Z,36.70
2019-05-22T10:53:59.627Z,37.20
2019-05-22T10:56:29.627Z,38.00
2019-05-22T10:59:01.519Z,37.80
2019-05-22T11:01:30.721Z,37.80
2019-05-22T11:04:00.519Z,37.50
2019-05-22T11:06:30.431Z,37.70
2019-05-22T11:08:59.922Z,37.90
2019-05-22T11:11:29.539Z,38.20
2019-05-22T11:14:02.018Z,37.70
2019-05-22T11:16:31.873Z,38.20
2019-05-22T11:19:02.672Z,38.30
2019-05-22T11:21:32.985Z,37.40
2019-05-22T11:24:02.930Z,36.90
2019-05-22T11:26:32.438Z,36.70
2019-05-22T11:29:03.042Z,36.90
2019-05-22T11:31:33.001Z,37.60
2019-05-22T11:34:02.645Z,36.70
2019-05-22T11:36:32.151Z,36.50
2019-05-22T11:39:01.659Z,36.70
2019-05-22T11:41:33.156Z,36.60
2019-05-22T11:44:02.733Z,37.00
2019-05-22T11:46:32.240Z,36.70
2019-05-22T11:49:01.668Z,36.60
2019-05-22T11:51:31.835Z,36.80
2019-05-22T11:54:09.259Z,37.30
2019-05-22T11:56:32.978Z,37.80
2019-05-22T11:59:04.546Z,38.20
2019-05-22T12:01:34.570Z,37.90
2019-05-22T12:04:05.684Z,37.70
2019-05-22T12:06:35.333Z,37.30
2019-05-22T12:09:07.572Z,37.10
2019-05-22T12:11:37.303Z,36.90
2019-05-22T12:14:08.103Z,37.20
2019-05-22T12:16:38.786Z,37.30
2019-05-22T12:19:09.510Z,37.20
2019-05-22T12:21:39.154Z,37.70
2019-05-22T12:24:18.566Z,38.40
2019-05-22T12:26:40.008Z,38.10
2019-05-22T12:29:09.559Z,39.00
2019-05-22T12:31:39.349Z,37.90
2019-05-22T12:34:09.001Z,37.70
2019-05-22T12:36:39.574Z,37.40
2019-05-22T12:39:11.661Z,37.20
2019-05-22T12:41:41.809Z,37.40
2019-05-22T12:44:12.000Z,38.20
2019-05-22T12:46:41.649Z,39.70
2019-05-22T12:49:12.298Z,41.00
2019-05-22T12:51:42.037Z,41.80
2019-05-22T12:54:11.995Z,42.40
2019-05-22T12:56:41.962Z,42.70
2019-05-22T12:59:12.474Z,42.80
2019-05-22T13:01:42.830Z,43.40
2019-05-22T13:04:13.312Z,42.80
2019-05-22T13:06:42.904Z,42.70
2019-05-22T13:09:12.669Z,43.00
2019-05-22T13:11:42.520Z,42.90
2019-05-22T13:14:12.229Z,42.20
2019-05-22T13:16:47.915Z,42.90
2019-05-22T13:19:14.358Z,42.90
2019-05-22T13:21:46.305Z,42.80
2019-05-22T13:24:18.913Z,43.40
2019-05-22T13:26:51.003Z,44.80
2019-05-22T13:29:21.487Z,45.30
2019-05-22T13:31:51.248Z,46.20
2019-05-22T13:34:23.852Z,48.40
2019-05-22T13:36:56.989Z,49.00
2019-05-22T13:39:27.340Z,49.30
2019-05-22T13:41:56.909Z,49.10
2019-05-22T13:44:26.680Z,48.50
2019-05-22T13:46:57.199Z,48.60
2019-05-22T13:49:28.522Z,49.00
2019-05-22T13:51:58.163Z,47.50
2019-05-22T13:54:28.010Z,46.70
2019-05-22T13:56:58.572Z,46.40
2019-05-22T13:59:28.623Z,46.40
2019-05-22T14:01:58.386Z,46.40
2019-05-22T14:04:28.023Z,46.40
2019-05-22T14:06:57.604Z,46.70
2019-05-22T14:09:28.479Z,47.10
2019-05-22T14:11:58.552Z,47.50
2019-05-22T14:14:28.347Z,47.10
2019-05-22T14:16:59.463Z,47.20
2019-05-22T14:19:29.178Z,46.30
2019-05-22T14:21:58.857Z,46.80
2019-05-22T14:24:28.521Z,47.50
2019-05-22T14:26:58.053Z,48.30
2019-05-22T14:29:27.679Z,48.50
2019-05-22T14:31:57.889Z,49.10
2019-05-22T14:34:28.312Z,49.60
2019-05-22T14:36:59.379Z,49.30
2019-05-22T14:39:30.361Z,48.80
2019-05-22T14:42:00.844Z,49.10
2019-05-22T14:44:33.753Z,48.70
2019-05-22T14:47:13.343Z,48.60
2019-05-22T14:49:33.276Z,48.70
2019-05-22T14:52:03.169Z,49.40
2019-05-22T14:54:32.798Z,49.10
2019-05-22T14:57:02.462Z,48.80
2019-05-22T14:59:32.148Z,48.40
2019-05-22T15:02:12.855Z,48.20
2019-05-22T15:04:45.016Z,47.60
2019-05-22T15:07:14.799Z,46.70
2019-05-22T15:09:44.574Z,46.20
2019-05-22T15:12:14.351Z,45.90
2019-05-22T15:14:44.130Z,45.90
2019-05-22T15:17:31.064Z,46.30
2019-05-22T15:19:47.626Z,46.10
2019-05-22T15:22:18.058Z,45.70
2019-05-22T15:24:47.964Z,45.20
2019-05-22T15:27:19.091Z,45.40
2019-05-22T15:29:48.815Z,45.80
2019-05-22T15:32:18.969Z,46.40
2019-05-22T15:34:48.925Z,47.00
2019-05-22T15:37:21.172Z,47.00
2019-05-22T15:39:51.008Z,47.00
2019-05-22T15:42:39.806Z,46.60
2019-05-22T15:45:12.437Z,46.60
2019-05-22T15:47:54.544Z,46.00
2019-05-22T15:50:20.962Z,45.50
2019-05-22T15:52:55.694Z,45.70
2019-05-22T15:55:26.521Z,46.20
2019-05-22T15:57:59.550Z,46.70
2019-05-22T16:00:34.922Z,47.20
2019-05-22T16:03:10.818Z,47.10
2019-05-22T16:05:42.094Z,47.00
2019-05-22T16:08:13.232Z,46.50
2019-05-22T16:10:45.090Z,46.80
2019-05-22T16:13:16.876Z,47.70
2019-05-22T16:15:49.947Z,47.90
2019-05-22T16:18:24.620Z,47.90
2019-05-22T16:20:55.052Z,47.90
2019-05-22T16:23:25.376Z,47.90
2019-05-22T16:25:55.306Z,47.70
2019-05-22T16:28:25.650Z,47.90
2019-05-22T16:30:56.090Z,48.10
2019-05-22T16:33:26.206Z,48.20
2019-05-22T16:35:56.543Z,48.70
2019-05-22T16:38:26.087Z,48.50
2019-05-22T16:40:56.193Z,48.40
2019-05-22T16:43:45.426Z,50.00
2019-05-22T16:45:58.479Z,50.10
2019-05-22T16:48:29.660Z,50.90
2019-05-22T16:50:59.774Z,52.90
2019-05-22T16:53:30.164Z,53.60
2019-05-22T16:55:59.906Z,55.10
2019-05-22T16:58:30.374Z,55.90
2019-05-22T17:01:02.801Z,55.70
2019-05-22T17:03:32.445Z,55.40
2019-05-22T17:06:02.532Z,56.00
2019-05-22T17:08:32.582Z,56.80
2019-05-22T17:11:04.686Z,58.30
2019-05-22T17:13:35.053Z,60.50
2019-05-22T17:16:06.965Z,61.90
2019-05-22T17:18:46.939Z,63.10
2019-05-22T17:21:09.129Z,64.30
2019-05-22T17:23:38.827Z,63.30
2019-05-22T17:26:08.397Z,61.50
2019-05-22T17:28:38.066Z,60.80
2019-05-22T17:31:08.128Z,61.40
2019-05-22T17:33:38.069Z,62.10
2019-05-22T17:36:08.001Z,64.10
2019-05-22T17:38:38.747Z,64.80
2019-05-22T17:41:10.779Z,66.40
2019-05-22T17:43:42.318Z,67.20
2019-05-22T17:46:13.600Z,68.30
2019-05-22T17:48:43.255Z,68.30
2019-05-22T17:51:13.545Z,69.10
2019-05-22T17:53:44.509Z,69.90
2019-05-22T17:56:14.485Z,70.90
2019-05-22T17:58:44.546Z,70.00
2019-05-22T18:01:15.743Z,70.30
2019-05-22T18:03:45.535Z,70.20
2019-05-22T18:06:15.488Z,70.10
2019-05-22T18:08:45.344Z,70.30
2019-05-22T18:11:15.319Z,70.40
2019-05-22T18:13:57.165Z,70.60
2019-05-22T18:16:27.236Z,71.00
2019-05-22T18:18:57.314Z,69.90
2019-05-22T18:21:27.066Z,67.80
2019-05-22T18:23:57.675Z,66.90
2019-05-22T18:26:27.820Z,67.20
2019-05-22T18:28:58.494Z,67.60
2019-05-22T18:31:28.201Z,67.70
2019-05-22T18:33:57.700Z,67.70
2019-05-22T18:36:27.236Z,67.80
2019-05-22T18:38:56.937Z,67.70
2019-05-22T18:41:26.419Z,67.60
2019-05-22T18:43:57.973Z,67.30
2019-05-22T18:46:27.473Z,67.80
2019-05-22T18:48:56.997Z,67.90
2019-05-22T18:51:26.487Z,68.10
2019-05-22T18:53:56.510Z,68.30
2019-05-22T18:56:26.211Z,67.70
2019-05-22T18:58:56.468Z,67.40
2019-05-22T19:01:26.370Z,67.80
2019-05-22T19:03:55.873Z,68.20
2019-05-22T19:06:30.367Z,68.10
2019-05-22T19:08:58.223Z,68.10
2019-05-22T19:11:27.980Z,68.30
2019-05-22T19:13:57.565Z,68.30
2019-05-22T19:16:27.890Z,68.80
2019-05-22T19:18:57.397Z,68.40
2019-05-22T19:21:26.940Z,68.20
2019-05-22T19:23:56.828Z,67.80
2019-05-22T19:26:26.696Z,67.80
2019-05-22T19:28:56.354Z,67.80
2019-05-22T19:31:26.361Z,67.90
2019-05-22T19:33:56.487Z,68.60
2019-05-22T19:36:26.083Z,69.80
2019-05-22T19:38:56.724Z,70.10
2019-05-22T19:41:26.485Z,71.00
2019-05-22T19:43:56.117Z,71.60
2019-05-22T19:46:25.808Z,72.20
2019-05-22T19:48:55.693Z,72.60
2019-05-22T19:51:25.278Z,72.60
2019-05-22T19:53:54.944Z,72.90
2019-05-22T19:56:25.711Z,72.90
2019-05-22T19:58:55.639Z,72.60
2019-05-22T20:01:26.158Z,71.40
2019-05-22T20:03:56.419Z,71.50
2019-05-22T20:06:26.326Z,71.50
2019-05-22T20:08:57.451Z,71.90
2019-05-22T20:11:28.125Z,71.20
2019-05-22T20:13:58.472Z,71.00
2019-05-22T20:16:29.187Z,70.80
2019-05-22T20:18:59.293Z,70.80
2019-05-22T20:21:29.228Z,71.70
2019-05-22T20:23:59.466Z,71.30
2019-05-22T20:26:29.102Z,70.50
2019-05-22T20:28:59.053Z,69.80
2019-05-22T20:31:29.904Z,69.60
2019-05-22T20:34:00.700Z,69.70
2019-05-22T20:36:31.236Z,70.20
2019-05-22T20:39:01.314Z,70.50
2019-05-22T20:41:32.664Z,70.60
2019-05-22T20:44:02.613Z,70.40
2019-05-22T20:46:32.851Z,70.30
2019-05-22T20:49:03.153Z,70.40
2019-05-22T20:51:33.117Z,70.40
2019-05-22T20:54:03.039Z,70.50
2019-05-22T20:56:34.899Z,70.40
2019-05-22T20:59:05.145Z,70.20
2019-05-22T21:01:35.198Z,70.30
2019-05-22T21:04:09.328Z,70.10
2019-05-22T21:06:48.636Z,70.00
2019-05-22T21:09:19.253Z,70.20
2019-05-22T21:11:49.789Z,70.70
2019-05-22T21:14:19.509Z,71.10
2019-05-22T21:16:49.827Z,71.20
2019-05-22T21:19:22.991Z,71.70
2019-05-22T21:21:51.931Z,71.70
2019-05-22T21:24:21.809Z,71.70
2019-05-22T21:26:51.219Z,71.20
2019-05-22T21:29:21.219Z,70.90
2019-05-22T21:31:50.861Z,70.40
2019-05-22T21:34:21.628Z,70.00
2019-05-22T21:36:51.307Z,69.60
2019-05-22T21:39:22.407Z,69.30
2019-05-22T21:41:52.926Z,68.90
2019-05-22T21:44:22.559Z,69.00
2019-05-22T21:46:52.823Z,69.80
2019-05-22T21:49:24.290Z,70.50
2019-05-22T21:51:54.112Z,71.50
2019-05-22T21:54:24.402Z,72.30
2019-05-22T21:56:54.570Z,72.30
2019-05-22T21:59:24.661Z,72.00
2019-05-22T22:01:59.012Z,71.40
2019-05-22T22:04:33.792Z,71.50
2019-05-22T22:07:04.715Z,73.20
2019-05-22T22:09:35.557Z,72.30
2019-05-22T22:12:08.367Z,71.00
2019-05-22T22:14:38.414Z,70.70
2019-05-22T22:17:10.162Z,70.90
2019-05-22T22:19:40.497Z,71.30
2019-05-22T22:22:13.510Z,72.70
2019-05-22T22:24:43.293Z,72.80
2019-05-22T22:27:12.970Z,72.40
2019-05-22T22:29:42.405Z,72.20
2019-05-22T22:32:13.078Z,72.50
2019-05-22T22:34:46.381Z,73.30
2019-05-22T22:37:18.229Z,73.30
2019-05-22T22:39:50.875Z,73.90
2019-05-22T22:42:21.978Z,73.00
2019-05-22T22:44:54.379Z,73.20
2019-05-22T22:47:28.402Z,73.60
2019-05-22T22:49:58.057Z,73.90
2019-05-22T22:52:27.740Z,74.60
2019-05-22T22:54:58.378Z,74.50
2019-05-22T22:57:28.010Z,74.70
2019-05-22T22:59:57.433Z,74.90
2019-05-22T23:02:30.716Z,75.50
2019-05-22T23:05:00.283Z,76.70
2019-05-22T23:07:31.805Z,77.20
2019-05-22T23:10:01.856Z,77.40
2019-05-22T23:12:31.831Z,76.70
2019-05-22T23:15:01.807Z,76.30
2019-05-22T23:17:31.582Z,76.50
2019-05-22T23:20:00.018Z,75.00
2019-05-22T23:22:28.785Z,73.80
2019-05-22T23:24:59.890Z,72.90
2019-05-22T23:27:31.565Z,72.30
2019-05-22T23:30:01.584Z,72.30
2019-05-22T23:32:31.764Z,72.90
2019-05-22T23:35:02.124Z,73.60
2019-05-22T23:37:32.385Z,74.50
2019-05-22T23:40:02.253Z,76.40
2019-05-22T23:42:36.376Z,77.50
2019-05-22T23:45:10.389Z,78.10
2019-05-22T23:47:45.576Z,78.20
2019-05-22T23:50:15.536Z,77.80
2019-05-22T23:52:45.039Z,77.50
2019-05-22T23:55:15.036Z,77.40
2019-05-22T23:57:47.188Z,78.60
